Ibra, Oman
Current Conditions -  °F | °C
As of 12:50 PM on Saturday 25 Oct 2014 (Local Time) from OOMS Reporting Station
Few Clouds Few Clouds  
Wind Chill: 90°   Ceiling: Unl
Heat Index: 95°   Visibility: 6mi
Dew Point: 70°   Wind: 16mph
Humidity: 52%   Direction: 60°ENE
Pressure: 29.83"   Gusts: NA
Location:  22.72°N, 58.53°E
Report Text: OOMS 250850Z 06014KT 9999 FEW025 32/21 Q1010 NOSIG
Loading
Personal Weather Stations






























Interactive Weather Map
Tropical Storm Tracking
New forecast layout! Learn more

10-Day Weather Forecast

Advertisements
Track Severe Weather on mobile